Time;durP1;ratioP1;P1;durP2;ratioP2;P2;SDS_P1;SDS_P2;PMS_P1;PMS_P2;Temp;Humidity;BMP_temperature;BMP_pressure;BME280_temperature;BME280_humidity;BME280_pressure;Samples;Min_cycle;Max_cycle;Signal;HPM_P1;HPM_P2
2021/06/27 00:00:33;;;;;;;4.13;2.08;;;19.10;99.90;;;;;;5060665;28;20044;-84
2021/06/27 00:02:59;;;;;;;3.22;2.05;;;19.10;99.90;;;;;;5061699;28;20025;-84
2021/06/27 00:05:27;;;;;;;4.03;1.67;;;19.00;99.90;;;;;;5058604;28;20031;-84
2021/06/27 00:07:54;;;;;;;4.15;2.05;;;19.00;99.90;;;;;;5066057;28;20432;-84
2021/06/27 00:10:25;;;;;;;2.85;2.03;;;19.00;99.90;;;;;;5059250;28;20033;-83
2021/06/27 00:12:51;;;;;;;4.90;2.50;;;18.90;99.90;;;;;;5066168;28;20062;-83
2021/06/27 00:15:26;;;;;;;4.30;2.53;;;18.90;99.90;;;;;;5051791;28;20424;-83
2021/06/27 00:17:52;;;;;;;4.88;2.60;;;18.90;99.90;;;;;;5066923;28;20024;-83
2021/06/27 00:20:22;;;;;;;5.43;2.65;;;18.90;99.90;;;;;;5060955;28;20057;-83
2021/06/27 00:22:48;;;;;;;4.60;2.70;;;18.90;99.90;;;;;;5044712;28;20025;-83
2021/06/27 00:25:16;;;;;;;3.55;2.50;;;18.90;99.90;;;;;;5050985;28;20112;-83
2021/06/27 00:27:45;;;;;;;6.60;2.65;;;18.90;99.90;;;;;;5052291;28;20035;-83
2021/06/27 00:30:12;;;;;;;4.68;2.45;;;18.80;99.90;;;;;;5066932;28;20083;-83
2021/06/27 00:32:38;;;;;;;3.95;2.50;;;18.80;99.90;;;;;;5064239;28;20032;-83
2021/06/27 00:35:08;;;;;;;3.63;2.45;;;18.90;99.90;;;;;;5066611;28;20612;-83
2021/06/27 00:37:34;;;;;;;5.65;2.90;;;18.80;99.90;;;;;;5045962;28;20036;-83
2021/06/27 00:40:00;;;;;;;4.40;2.55;;;18.80;99.90;;;;;;5068183;28;20385;-83
2021/06/27 00:42:26;;;;;;;5.22;2.30;;;18.80;99.90;;;;;;5061219;28;20020;-83
2021/06/27 00:44:51;;;;;;;3.20;2.30;;;18.60;99.90;;;;;;5071466;28;20054;-82
2021/06/27 00:47:31;;;;;;;3.90;2.30;;;18.70;99.90;;;;;;5042850;28;20024;-83
2021/06/27 00:49:57;;;;;;;3.38;2.28;;;18.60;99.90;;;;;;5057852;28;20128;-83
2021/06/27 00:52:23;;;;;;;3.63;2.80;;;18.70;99.90;;;;;;5067303;28;20063;-83
2021/06/27 00:54:49;;;;;;;4.00;2.28;;;18.70;99.90;;;;;;5060125;28;20052;-83
2021/06/27 00:57:15;;;;;;;3.60;2.28;;;18.70;99.90;;;;;;5057378;28;20473;-83
2021/06/27 00:59:41;;;;;;;4.60;2.38;;;18.70;99.90;;;;;;5061994;28;20013;-86
2021/06/27 01:02:07;;;;;;;2.95;2.47;;;18.70;99.90;;;;;;5059028;28;20031;-83
2021/06/27 01:04:32;;;;;;;5.15;3.00;;;18.70;99.90;;;;;;5046692;28;20021;-86
2021/06/27 01:06:58;;;;;;;5.68;2.67;;;18.70;99.90;;;;;;5070366;28;20151;-84
2021/06/27 01:09:24;;;;;;;3.65;2.13;;;18.70;99.90;;;;;;5064381;28;20021;-83
2021/06/27 01:11:50;;;;;;;4.20;2.50;;;18.60;99.90;;;;;;5061807;28;20118;-83
2021/06/27 01:14:15;;;;;;;5.05;2.25;;;18.60;99.90;;;;;;5060112;28;20059;-82
2021/06/27 01:16:41;;;;;;;6.40;2.60;;;18.60;99.90;;;;;;5059859;28;20056;-83
2021/06/27 01:19:10;;;;;;;5.07;2.90;;;18.70;99.90;;;;;;5062863;28;20017;-83
2021/06/27 01:21:35;;;;;;;7.45;3.45;;;18.70;99.90;;;;;;5057644;28;20025;-83
2021/06/27 01:24:03;;;;;;;3.83;2.40;;;18.70;99.90;;;;;;5071035;28;20089;-84
2021/06/27 01:26:28;;;;;;;4.47;2.60;;;18.60;99.90;;;;;;5056737;28;20654;-82
2021/06/27 01:28:54;;;;;;;4.47;2.35;;;18.60;99.90;;;;;;5065489;28;20484;-83
2021/06/27 01:31:20;;;;;;;5.78;2.22;;;18.50;99.90;;;;;;5056585;28;20029;-82
2021/06/27 01:33:49;;;;;;;5.40;2.38;;;18.50;99.90;;;;;;5065986;28;20020;-82
2021/06/27 01:36:14;;;;;;;4.38;2.40;;;18.50;99.90;;;;;;5056008;28;20111;-82
2021/06/27 01:38:40;;;;;;;6.22;2.40;;;18.50;99.90;;;;;;5069602;28;20096;-82
2021/06/27 01:41:06;;;;;;;4.15;2.47;;;18.50;99.90;;;;;;5058038;28;20067;-83
2021/06/27 01:43:32;;;;;;;4.90;2.45;;;18.50;99.90;;;;;;5069802;28;20554;-83
2021/06/27 01:45:59;;;;;;;3.03;2.10;;;18.50;99.90;;;;;;5059766;28;20588;-82
2021/06/27 01:48:26;;;;;;;4.82;2.30;;;18.50;99.90;;;;;;5049444;28;20110;-82
2021/06/27 01:50:55;;;;;;;6.38;2.20;;;18.60;99.90;;;;;;5061519;28;20045;-83
2021/06/27 01:53:26;;;;;;;5.10;2.75;;;18.50;99.90;;;;;;5067331;28;20028;-82
2021/06/27 01:56:04;;;;;;;5.03;2.60;;;18.50;99.90;;;;;;5070662;28;20385;-83
2021/06/27 01:58:34;;;;;;;7.97;2.72;;;18.50;99.90;;;;;;5067990;28;20066;-82
2021/06/27 02:01:01;;;;;;;10.48;2.67;;;18.40;99.90;;;;;;5060458;28;20513;-82
2021/06/27 02:03:26;;;;;;;5.82;2.65;;;18.50;99.90;;;;;;5067029;28;20024;-85
2021/06/27 02:05:52;;;;;;;6.75;2.80;;;18.50;99.90;;;;;;5070616;28;20016;-88
2021/06/27 02:08:18;;;;;;;7.00;2.80;;;18.50;99.90;;;;;;5068534;28;20401;-82
2021/06/27 02:10:44;;;;;;;4.15;2.33;;;18.50;99.90;;;;;;5056910;28;20036;-82
2021/06/27 02:13:09;;;;;;;4.97;2.83;;;18.50;99.90;;;;;;5069967;28;20074;-84
2021/06/27 02:15:35;;;;;;;5.15;1.70;;;18.50;99.90;;;;;;5065896;28;20021;-83
2021/06/27 02:18:09;;;;;;;4.88;2.00;;;18.50;99.90;;;;;;5065432;28;20428;-82
2021/06/27 02:20:35;;;;;;;;;;;18.50;99.90;;;;;;5067099;28;20021;-87
2021/06/27 02:23:01;;;;;;;4.40;2.22;;;18.50;99.90;;;;;;5065605;28;19943;-83
2021/06/27 02:25:27;;;;;;;4.25;2.22;;;18.40;99.90;;;;;;5069271;28;20017;-83
2021/06/27 02:27:54;;;;;;;2.78;1.73;;;18.50;99.90;;;;;;5046392;28;20031;-83
2021/06/27 02:30:20;;;;;;;3.70;2.10;;;18.50;99.90;;;;;;5070205;28;20430;-83
2021/06/27 02:32:46;;;;;;;2.63;1.90;;;18.50;99.90;;;;;;5063751;28;20024;-82
2021/06/27 02:35:13;;;;;;;3.70;1.70;;;18.50;99.90;;;;;;5069851;28;20058;-83
2021/06/27 02:37:39;;;;;;;3.38;2.10;;;18.50;99.90;;;;;;5060977;28;20021;-83
2021/06/27 02:40:09;;;;;;;6.32;2.17;;;18.50;99.90;;;;;;5055603;28;20021;-87
2021/06/27 02:42:35;;;;;;;5.88;2.72;;;18.50;99.90;;;;;;5065397;28;20040;-82
2021/06/27 02:45:01;;;;;;;3.08;2.05;;;18.50;99.90;;;;;;5052022;28;20024;-83
2021/06/27 02:47:26;;;;;;;3.80;2.08;;;18.60;99.90;;;;;;5065802;28;20116;-83
2021/06/27 02:49:52;;;;;;;3.95;2.33;;;18.60;99.90;;;;;;5052572;28;20048;-82
2021/06/27 02:52:18;;;;;;;4.07;2.17;;;18.60;99.90;;;;;;5081641;28;20036;-82
2021/06/27 02:54:44;;;;;;;4.93;2.42;;;18.70;99.90;;;;;;5079515;28;20020;-83
2021/06/27 02:57:09;;;;;;;3.47;2.08;;;18.60;99.90;;;;;;5072195;28;20020;-82
2021/06/27 02:59:35;;;;;;;3.53;2.10;;;18.60;99.90;;;;;;5087952;28;20516;-82
2021/06/27 03:02:01;;;;;;;4.10;2.00;;;18.50;99.90;;;;;;5076439;28;20032;-82
2021/06/27 03:04:26;;;;;;;6.57;2.25;;;18.60;99.90;;;;;;5081143;28;20017;-89
2021/06/27 03:06:52;;;;;;;5.85;2.42;;;18.50;99.90;;;;;;5075003;28;20024;-82
2021/06/27 03:09:18;;;;;;;5.80;2.63;;;18.40;99.90;;;;;;5086283;28;20035;-81
2021/06/27 03:11:44;;;;;;;5.72;2.30;;;18.40;99.90;;;;;;5075797;28;20032;-81
2021/06/27 03:14:10;;;;;;;5.60;2.95;;;18.50;99.90;;;;;;5087425;28;20066;-81
2021/06/27 03:16:35;;;;;;;6.22;2.70;;;18.50;99.90;;;;;;5076947;28;20023;-82
2021/06/27 03:19:01;;;;;;;4.78;2.80;;;18.50;99.90;;;;;;5088039;28;20419;-81
2021/06/27 03:21:27;;;;;;;5.97;2.75;;;18.50;99.90;;;;;;5078140;28;20024;-81
2021/06/27 03:23:52;;;;;;;5.35;2.78;;;18.60;99.90;;;;;;5087076;28;20013;-81
2021/06/27 03:26:18;;;;;;;5.32;2.83;;;18.50;99.90;;;;;;5071087;28;20025;-81
2021/06/27 03:28:46;;;;;;;4.05;2.30;;;18.50;99.90;;;;;;5085087;28;20035;-81
2021/06/27 03:31:12;;;;;;;6.72;3.10;;;18.50;99.90;;;;;;5069898;28;20029;-82
2021/06/27 03:33:38;;;;;;;4.75;2.65;;;18.50;99.90;;;;;;5083980;28;20028;-82
2021/06/27 03:36:04;;;;;;;5.85;2.90;;;18.50;99.90;;;;;;5075700;28;20058;-82
2021/06/27 03:40:58;;;;;;;7.75;2.92;;;18.50;99.90;;;;;;5069464;28;20025;-81
2021/06/27 03:43:24;;;;;;;3.53;2.65;;;18.60;99.90;;;;;;5085925;28;20506;-81
2021/06/27 03:45:49;;;;;;;9.80;3.78;;;18.60;99.90;;;;;;5075199;28;20480;-82
2021/06/27 03:48:15;;;;;;;5.55;3.50;;;18.50;99.90;;;;;;5087533;28;20017;-81
2021/06/27 03:50:40;;;;;;;5.40;3.22;;;18.50;99.90;;;;;;5059704;28;20408;-82
2021/06/27 03:53:06;;;;;;;6.22;3.03;;;18.50;99.90;;;;;;5064464;28;20039;-82
2021/06/27 03:55:32;;;;;;;7.95;3.35;;;18.50;99.90;;;;;;5037507;28;20698;-81
2021/06/27 03:57:58;;;;;;;8.93;3.65;;;18.50;99.90;;;;;;5059328;28;20048;-81
2021/06/27 04:00:24;;;;;;;9.40;3.53;;;18.50;99.90;;;;;;5061050;28;20060;-82
2021/06/27 04:02:50;;;;;;;7.43;2.88;;;18.50;99.90;;;;;;5059333;28;20444;-81
2021/06/27 04:05:15;;;;;;;6.13;3.50;;;18.50;99.90;;;;;;5055205;28;20101;-82
2021/06/27 04:07:42;;;;;;;5.22;3.10;;;18.50;99.90;;;;;;5060960;28;20174;-82
2021/06/27 04:10:09;;;;;;;12.75;3.88;;;18.50;99.90;;;;;;5046665;28;20519;-81
2021/06/27 04:12:34;;;;;;;6.88;3.58;;;18.50;99.90;;;;;;5041910;28;20032;-82
2021/06/27 04:15:00;;;;;;;6.43;3.05;;;18.50;99.90;;;;;;5050743;28;20565;-82
2021/06/27 04:17:26;;;;;;;3.78;1.95;;;18.50;99.90;;;;;;5044564;28;20020;-82
2021/06/27 04:19:52;;;;;;;3.20;2.00;;;18.50;99.90;;;;;;5070423;28;20435;-82
2021/06/27 04:22:18;;;;;;;2.13;1.60;;;18.50;99.90;;;;;;5059629;28;20027;-82
2021/06/27 04:24:44;;;;;;;3.42;1.50;;;18.40;99.90;;;;;;5072068;28;20382;-81
2021/06/27 04:27:10;;;;;;;2.42;1.30;;;18.30;99.90;;;;;;5060899;28;20028;-81
2021/06/27 04:29:36;;;;;;;4.13;1.67;;;18.30;99.90;;;;;;5061879;28;20655;-81
2021/06/27 04:32:03;;;;;;;2.80;1.50;;;18.20;99.90;;;;;;5040067;28;20121;-87
2021/06/27 04:34:29;;;;;;;3.72;1.63;;;18.10;99.90;;;;;;5063788;28;20024;-81
2021/06/27 04:36:55;;;;;;;2.40;1.60;;;18.20;99.90;;;;;;5063780;28;20025;-81
2021/06/27 04:39:21;;;;;;;2.75;1.65;;;18.10;99.90;;;;;;5067168;28;20035;-81
2021/06/27 04:41:47;;;;;;;2.75;1.38;;;18.20;99.90;;;;;;5059326;28;20035;-81
2021/06/27 04:44:13;;;;;;;3.78;1.50;;;18.20;99.90;;;;;;5071995;28;20020;-81
2021/06/27 04:46:39;;;;;;;1.70;1.20;;;18.30;99.90;;;;;;5070955;28;20016;-81
2021/06/27 04:49:08;;;;;;;2.63;1.58;;;18.20;99.90;;;;;;5067842;28;20028;-81
2021/06/27 04:51:37;;;;;;;4.00;1.75;;;18.10;99.90;;;;;;5057612;28;20056;-82
2021/06/27 04:54:03;;;;;;;4.20;1.40;;;18.00;99.90;;;;;;5068321;28;20020;-81
2021/06/27 04:56:29;;;;;;;5.00;1.55;;;18.00;99.90;;;;;;5057753;28;20489;-81
2021/06/27 04:58:55;;;;;;;3.42;1.90;;;18.00;99.90;;;;;;5069535;28;20048;-81
2021/06/27 05:01:20;;;;;;;5.32;1.75;;;17.90;99.90;;;;;;5059347;28;20090;-81
2021/06/27 05:03:46;;;;;;;4.55;1.60;;;17.90;99.90;;;;;;5069175;28;20044;-81
2021/06/27 05:06:12;;;;;;;4.75;2.05;;;17.90;99.90;;;;;;5060675;28;20021;-81
2021/06/27 05:08:38;;;;;;;3.38;1.90;;;17.90;99.90;;;;;;5071347;28;20032;-82
2021/06/27 05:11:03;;;;;;;3.28;1.90;;;17.90;99.90;;;;;;5059583;28;20029;-81
2021/06/27 05:13:29;;;;;;;3.47;2.03;;;18.10;99.90;;;;;;5066673;28;20044;-81
2021/06/27 05:15:55;;;;;;;4.15;1.92;;;18.10;99.90;;;;;;5052496;28;20087;-81
2021/06/27 05:18:20;;;;;;;4.47;1.73;;;18.10;99.90;;;;;;5062747;28;20066;-82
2021/06/27 05:20:47;;;;;;;4.78;1.70;;;18.10;99.90;;;;;;5061880;28;20025;-84
2021/06/27 05:23:14;;;;;;;3.80;1.70;;;18.10;99.90;;;;;;5065814;28;20028;-83
2021/06/27 05:25:40;;;;;;;3.65;1.63;;;18.10;99.90;;;;;;5063116;28;20453;-88
2021/06/27 05:28:05;;;;;;;3.45;1.50;;;18.10;99.90;;;;;;5044711;28;20104;-84
2021/06/27 05:30:31;;;;;;;3.28;1.60;;;18.20;99.90;;;;;;5063884;28;20097;-84
2021/06/27 05:32:57;;;;;;;4.95;2.08;;;18.20;99.90;;;;;;5060604;28;20040;-84
2021/06/27 05:35:23;;;;;;;4.25;1.60;;;18.10;99.90;;;;;;5050468;28;20558;-84
2021/06/27 05:37:49;;;;;;;4.07;1.60;;;18.10;99.90;;;;;;5037497;28;20025;-84
2021/06/27 05:40:14;;;;;;;3.20;1.85;;;18.10;99.90;;;;;;5053840;28;20050;-84
2021/06/27 05:42:40;;;;;;;4.82;1.75;;;18.20;99.90;;;;;;5056995;28;20016;-84
2021/06/27 05:45:06;;;;;;;4.57;2.35;;;18.20;99.90;;;;;;5065845;28;20110;-84
2021/06/27 05:47:32;;;;;;;4.78;2.10;;;18.20;99.90;;;;;;5054380;28;20024;-84
2021/06/27 05:49:58;;;;;;;4.03;2.00;;;18.20;99.90;;;;;;5068506;28;20299;-84
2021/06/27 05:52:24;;;;;;;3.65;1.88;;;18.20;99.90;;;;;;5067977;28;20639;-84
2021/06/27 05:54:50;;;;;;;5.32;2.25;;;18.20;99.90;;;;;;5070521;28;20495;-84
2021/06/27 05:57:16;;;;;;;6.38;1.98;;;18.30;99.90;;;;;;5069708;28;20024;-84
2021/06/27 05:59:42;;;;;;;5.45;2.22;;;18.30;99.90;;;;;;5055952;28;20023;-84
2021/06/27 06:02:08;;;;;;;3.20;1.83;;;18.40;99.90;;;;;;5069196;28;20013;-84
2021/06/27 06:04:34;;;;;;;3.67;2.03;;;18.30;99.90;;;;;;5059485;28;20025;-84
2021/06/27 06:06:59;;;;;;;3.33;2.17;;;18.40;99.90;;;;;;5054411;28;20017;-85
2021/06/27 06:09:25;;;;;;;3.78;2.22;;;18.30;99.90;;;;;;5052731;28;20449;-83
2021/06/27 06:11:50;;;;;;;3.50;2.05;;;18.20;99.90;;;;;;5050293;28;20454;-84
2021/06/27 06:14:16;;;;;;;3.50;2.05;;;18.20;99.90;;;;;;5055653;28;20017;-84
2021/06/27 06:16:46;;;;;;;2.55;2.20;;;18.30;99.90;;;;;;5053195;28;20020;-84
2021/06/27 06:19:13;;;;;;;5.00;2.33;;;18.30;99.90;;;;;;5063842;28;20032;-83
2021/06/27 06:21:39;;;;;;;3.15;2.15;;;18.30;99.90;;;;;;5063842;28;20027;-83
2021/06/27 06:24:05;;;;;;;4.50;1.95;;;18.30;99.90;;;;;;5061313;28;20024;-83
2021/06/27 06:26:31;;;;;;;3.10;1.90;;;18.40;99.90;;;;;;5034350;28;20029;-83
2021/06/27 06:29:00;;;;;;;3.15;2.08;;;18.30;99.90;;;;;;5068956;28;20048;-83
2021/06/27 06:31:25;;;;;;;5.40;2.40;;;18.30;99.90;;;;;;5059863;28;20119;-83
2021/06/27 06:33:51;;;;;;;4.78;1.98;;;18.20;99.90;;;;;;5065677;28;20608;-82
2021/06/27 06:36:17;;;;;;;3.22;2.67;;;18.20;99.90;;;;;;5059503;28;20020;-82
2021/06/27 06:38:43;;;;;;;4.97;2.38;;;18.10;99.90;;;;;;5070140;28;20477;-82
2021/06/27 06:41:09;;;;;;;5.32;2.53;;;18.00;99.90;;;;;;5062514;28;20055;-84
2021/06/27 06:43:35;;;;;;;5.72;2.60;;;17.90;99.90;;;;;;5057045;28;20519;-84
2021/06/27 06:46:02;;;;;;;3.05;2.50;;;17.80;99.90;;;;;;5051467;28;20024;-82
2021/06/27 06:48:28;;;;;;;4.28;2.45;;;17.70;99.90;;;;;;5069027;28;20413;-82
2021/06/27 06:50:53;;;;;;;4.68;2.53;;;17.60;99.90;;;;;;5065467;28;20052;-82
2021/06/27 06:53:19;;;;;;;5.15;2.72;;;17.70;99.90;;;;;;5041361;28;20112;-82
2021/06/27 06:55:45;;;;;;;4.68;2.95;;;17.70;99.90;;;;;;5052450;28;20032;-82
2021/06/27 06:58:11;;;;;;;4.13;2.42;;;17.70;99.90;;;;;;5058625;28;20397;-82
2021/06/27 07:00:37;;;;;;;4.47;2.90;;;17.70;99.90;;;;;;5054037;28;20017;-81
2021/06/27 07:03:04;;;;;;;6.88;2.50;;;17.80;99.90;;;;;;5061667;28;20123;-82
2021/06/27 07:05:30;;;;;;;2.92;2.30;;;17.90;99.90;;;;;;5058047;28;20029;-83
2021/06/27 07:07:56;;;;;;;6.93;3.13;;;17.90;99.90;;;;;;5063441;28;20074;-82
2021/06/27 07:10:22;;;;;;;4.03;2.90;;;17.90;99.90;;;;;;5069764;28;20051;-81
2021/06/27 07:12:47;;;;;;;4.15;2.58;;;18.00;99.90;;;;;;5060782;28;20071;-81
2021/06/27 07:15:13;;;;;;;6.35;3.30;;;18.00;99.90;;;;;;5051461;28;20029;-82
2021/06/27 07:17:39;;;;;;;5.93;3.08;;;18.00;99.90;;;;;;5063077;28;20492;-82
2021/06/27 07:20:07;;;;;;;5.68;3.15;;;18.00;99.90;;;;;;5069443;28;20042;-83
2021/06/27 07:22:33;;;;;;;8.80;4.20;;;18.00;99.90;;;;;;5061872;28;20034;-82
2021/06/27 07:24:58;;;;;;;11.02;3.55;;;18.00;99.90;;;;;;5054933;28;20104;-84
2021/06/27 07:27:24;;;;;;;6.30;3.50;;;18.00;99.90;;;;;;5063431;28;20024;-83
2021/06/27 07:29:50;;;;;;;9.10;3.65;;;18.10;99.90;;;;;;5055146;28;20029;-84
2021/06/27 07:32:16;;;;;;;6.38;3.38;;;18.20;99.90;;;;;;5060543;28;20112;-84
2021/06/27 07:34:41;;;;;;;5.18;3.40;;;18.20;99.90;;;;;;5062730;28;20044;-85
2021/06/27 07:37:08;;;;;;;6.68;3.40;;;18.20;99.90;;;;;;5048802;28;20056;-84
2021/06/27 07:39:34;;;;;;;4.32;2.92;;;18.10;99.90;;;;;;5062086;28;20013;-84
2021/06/27 07:42:00;;;;;;;5.57;3.50;;;18.00;99.90;;;;;;5056467;28;20025;-84
2021/06/27 07:44:25;;;;;;;6.07;3.70;;;18.00;99.90;;;;;;5064927;28;20489;-84
2021/06/27 07:46:51;;;;;;;5.85;3.33;;;18.00;99.90;;;;;;5054786;28;20436;-85
2021/06/27 07:49:17;;;;;;;7.03;3.85;;;18.10;99.90;;;;;;5066821;28;20031;-85
2021/06/27 07:51:43;;;;;;;5.65;3.75;;;18.10;99.90;;;;;;5058854;28;20059;-87
2021/06/27 07:54:08;;;;;;;8.13;3.55;;;18.00;99.90;;;;;;5070141;28;20033;-89
2021/06/27 07:56:34;;;;;;;8.82;4.60;;;18.00;99.90;;;;;;5060007;28;20017;-88
2021/06/27 07:58:59;;;;;;;7.00;3.72;;;18.00;99.90;;;;;;5070623;28;20024;-89
2021/06/27 08:01:25;;;;;;;5.32;3.05;;;18.00;99.90;;;;;;5060842;28;20028;-88
2021/06/27 08:03:51;;;;;;;8.07;3.80;;;17.80;99.90;;;;;;5071613;28;20489;-87
2021/06/27 08:06:17;;;;;;;10.23;6.47;;;17.80;99.90;;;;;;5056196;28;20119;-85
2021/06/27 08:08:43;;;;;;;10.02;5.03;;;17.70;99.90;;;;;;5076163;28;20039;-85
2021/06/27 08:11:09;;;;;;;12.85;4.82;;;17.80;99.90;;;;;;5063406;28;20036;-84
2021/06/27 08:13:35;;;;;;;8.63;3.58;;;17.70;99.90;;;;;;5074700;28;20025;-84
2021/06/27 08:16:01;;;;;;;7.40;3.58;;;17.60;99.90;;;;;;5072163;28;20028;-86
2021/06/27 08:18:27;;;;;;;7.53;3.60;;;17.30;99.90;;;;;;5061064;28;20013;-85
2021/06/27 08:20:52;;;;;;;8.00;3.10;;;17.30;99.90;;;;;;5041818;28;20086;-84
2021/06/27 08:23:18;;;;;;;6.05;3.03;;;17.30;99.90;;;;;;5063849;28;20039;-84
2021/06/27 08:25:44;;;;;;;6.28;2.70;;;17.40;99.90;;;;;;5066108;28;20025;-83
2021/06/27 08:28:10;;;;;;;4.78;2.35;;;17.40;99.90;;;;;;5066966;28;20385;-85
2021/06/27 08:30:36;;;;;;;4.13;1.50;;;17.50;99.90;;;;;;5060429;28;20075;-85
2021/06/27 08:33:02;;;;;;;3.10;1.17;;;17.50;99.90;;;;;;5063317;28;20063;-85
2021/06/27 08:35:29;;;;;;;2.25;1.02;;;17.50;99.90;;;;;;5062291;28;20029;-85
2021/06/27 08:37:55;;;;;;;4.20;0.85;;;17.40;99.90;;;;;;5062109;28;20028;-85
2021/06/27 08:40:22;;;;;;;3.63;0.85;;;17.40;99.90;;;;;;5050900;28;20020;-84
2021/06/27 08:42:49;;;;;;;2.42;1.05;;;17.50;99.90;;;;;;5069430;28;20036;-84
2021/06/27 08:45:18;;;;;;;2.10;0.88;;;17.60;99.90;;;;;;5059557;28;20017;-85
2021/06/27 08:47:45;;;;;;;6.50;1.13;;;17.70;99.90;;;;;;5061820;28;20020;-84
2021/06/27 08:50:14;;;;;;;2.95;1.00;;;17.80;99.90;;;;;;5060662;28;20055;-84
2021/06/27 08:52:44;;;;;;;3.05;0.80;;;17.90;99.90;;;;;;5062095;28;20415;-84
2021/06/27 08:55:11;;;;;;;2.42;0.77;;;18.10;99.90;;;;;;5067162;28;20549;-85
2021/06/27 08:57:38;;;;;;;2.40;1.08;;;18.30;99.90;;;;;;5047427;28;20029;-85
2021/06/27 09:00:06;;;;;;;4.07;1.02;;;18.50;99.90;;;;;;5061861;28;20495;-85
2021/06/27 09:02:32;;;;;;;4.32;2.00;;;18.70;99.90;;;;;;5066728;28;20383;-84
2021/06/27 09:04:57;;;;;;;6.18;2.05;;;18.80;99.90;;;;;;5046012;28;20020;-84
2021/06/27 09:07:33;;;;;;;3.95;1.77;;;18.80;99.90;;;;;;5050431;28;20068;-85
2021/06/27 09:10:17;;;;;;;7.60;2.60;;;18.90;99.90;;;;;;5059766;28;20520;-84
2021/06/27 09:12:54;;;;;;;4.87;2.40;;;18.90;99.90;;;;;;5064667;28;20028;-87
2021/06/27 09:15:45;;;;;;;7.78;2.78;;;18.80;99.90;;;;;;5060025;28;20248;-87
2021/06/27 09:18:13;;;;;;;7.38;1.10;;;18.50;99.90;;;;;;5045237;28;20528;-86
2021/06/27 09:20:47;;;;;;;7.30;1.10;;;17.90;99.90;;;;;;5060759;28;20493;-88
2021/06/27 09:23:15;;;;;;;8.80;0.90;;;17.30;99.90;;;;;;5064934;28;20615;-86
2021/06/27 09:25:42;;;;;;;7.07;1.15;;;17.00;99.90;;;;;;5061624;28;20024;-87
2021/06/27 09:28:13;;;;;;;7.97;0.98;;;16.80;99.90;;;;;;5061016;28;20103;-87
2021/06/27 09:30:49;;;;;;;12.18;1.40;;;16.80;99.90;;;;;;5051336;28;20040;-87
2021/06/27 09:33:30;;;;;;;11.18;1.80;;;16.70;99.90;;;;;;5069675;28;20028;-90
2021/06/27 09:35:59;;;;;;;13.75;1.25;;;16.60;99.90;;;;;;5053447;28;20082;-91
2021/06/27 09:38:45;;;;;;;6.43;1.10;;;16.70;99.90;;;;;;5068146;28;20540;-88
2021/06/27 09:41:22;;;;;;;6.57;1.08;;;16.50;99.90;;;;;;5069938;28;20059;-88
2021/06/27 09:43:53;;;;;;;6.93;1.08;;;16.50;99.90;;;;;;5064403;28;20056;-87
2021/06/27 09:46:32;;;;;;;9.18;0.95;;;16.40;99.90;;;;;;5053363;28;20468;-87
2021/06/27 09:49:02;;;;;;;8.55;1.40;;;16.40;99.90;;;;;;5064237;28;20024;-88
2021/06/27 09:51:30;;;;;;;8.95;1.10;;;16.40;99.90;;;;;;5055704;28;20044;-87
2021/06/27 09:53:56;;;;;;;9.63;1.13;;;16.60;99.90;;;;;;5056999;28;20039;-86
2021/06/27 09:56:25;;;;;;;9.45;1.30;;;16.70;99.90;;;;;;5062499;28;20021;-87
2021/06/27 09:59:06;;;;;;;4.65;0.70;;;17.00;99.90;;;;;;5070007;28;20024;-86
2021/06/27 10:01:34;;;;;;;5.43;1.15;;;17.20;99.90;;;;;;5051578;28;20079;-87
2021/06/27 10:04:02;;;;;;;9.10;1.20;;;17.30;99.90;;;;;;5061380;28;20045;-86
2021/06/27 10:06:49;;;;;;;2.53;0.60;;;17.40;99.90;;;;;;5051399;28;20047;-85
2021/06/27 10:09:20;;;;;;;2.70;0.85;;;17.50;99.90;;;;;;5064117;28;20020;-85
2021/06/27 10:12:05;;;;;;;4.75;1.25;;;17.90;99.90;;;;;;5037692;28;20302;-86
2021/06/27 10:14:33;;;;;;;7.78;1.15;;;18.00;99.90;;;;;;5046927;28;20013;-85
2021/06/27 10:17:01;;;;;;;7.50;2.00;;;18.00;99.90;;;;;;5054220;28;20428;-84
2021/06/27 10:19:27;;;;;;;8.02;1.85;;;17.80;99.90;;;;;;5069685;28;20028;-84
2021/06/27 10:21:58;;;;;;;6.20;1.02;;;17.90;99.90;;;;;;5057708;28;20024;-84
2021/06/27 10:24:24;;;;;;;4.65;1.38;;;18.10;99.90;;;;;;5059610;28;20017;-84
2021/06/27 10:26:51;;;;;;;5.53;1.38;;;18.10;99.90;;;;;;5053810;28;20409;-84
2021/06/27 10:29:21;;;;;;;5.30;0.80;;;18.30;99.90;;;;;;5059378;28;20405;-85
2021/06/27 10:31:51;;;;;;;3.33;0.93;;;18.20;99.90;;;;;;5051343;28;20473;-85
2021/06/27 10:34:21;;;;;;;3.40;0.70;;;18.10;99.90;;;;;;5057623;28;20013;-85
2021/06/27 10:37:17;;;;;;;8.05;1.10;;;18.00;99.90;;;;;;5053388;28;20032;-85
2021/06/27 10:40:08;;;;;;;4.85;0.88;;;17.70;99.90;;;;;;5037391;28;20496;-86
2021/06/27 10:42:49;;;;;;;7.40;0.82;;;17.70;99.90;;;;;;5059918;28;20047;-86
2021/06/27 10:45:22;;;;;;;8.77;1.00;;;17.70;99.90;;;;;;5065956;28;20708;-86
2021/06/27 10:47:48;;;;;;;8.23;0.90;;;17.70;99.90;;;;;;5050968;28;20027;-85
2021/06/27 10:50:16;;;;;;;4.97;1.75;;;17.90;99.90;;;;;;5062734;28;20045;-85
2021/06/27 10:52:51;;;;;;;4.97;1.73;;;18.20;99.90;;;;;;5060139;28;20025;-85
2021/06/27 10:55:38;;;;;;;4.28;1.58;;;18.50;99.90;;;;;;5064261;28;20051;-85
2021/06/27 10:58:34;;;;;;;7.25;1.25;;;18.60;99.90;;;;;;5063630;28;20020;-85
2021/06/27 11:01:01;;;;;;;5.20;0.70;;;18.80;99.90;;;;;;5052743;28;20501;-87
2021/06/27 11:03:26;;;;;;;4.07;1.02;;;18.80;99.90;;;;;;5064530;28;20020;-86
2021/06/27 11:05:59;;;;;;;3.38;0.75;;;18.80;99.90;;;;;;5069492;28;20024;-87
2021/06/27 11:08:42;;;;;;;3.00;0.80;;;18.90;99.90;;;;;;5051015;28;20040;-87
2021/06/27 11:11:21;;;;;;;6.40;0.95;;;19.10;99.90;;;;;;5049868;28;20119;-89
2021/06/27 11:14:13;;;;;;;6.88;0.70;;;19.00;99.90;;;;;;5065650;28;20111;-88
2021/06/27 11:17:03;;;;;;;4.93;0.77;;;18.60;99.90;;;;;;5060813;28;20039;-88
2021/06/27 11:19:40;;;;;;;8.43;1.00;;;18.30;99.90;;;;;;5066669;28;20021;-87
2021/06/27 11:22:26;;;;;;;5.80;1.13;;;18.10;99.90;;;;;;5061898;28;20017;-88
2021/06/27 11:24:54;;;;;;;6.55;0.95;;;18.00;99.90;;;;;;5065354;28;20020;-87
2021/06/27 11:27:28;;;;;;;4.25;1.00;;;18.00;99.90;;;;;;5065922;28;20035;-88
2021/06/27 11:29:54;;;;;;;6.13;0.90;;;18.10;99.90;;;;;;5065710;28;20192;-87
2021/06/27 11:32:23;;;;;;;5.57;0.82;;;18.20;99.90;;;;;;5062278;28;20188;-87
2021/06/27 11:34:56;;;;;;;7.82;1.35;;;18.10;99.90;;;;;;5064407;28;20051;-86
2021/06/27 11:37:22;;;;;;;5.90;1.23;;;18.10;99.90;;;;;;5061616;28;20020;-86
2021/06/27 11:39:49;;;;;;;4.40;0.85;;;18.10;99.90;;;;;;5060061;28;20028;-87
2021/06/27 11:42:23;;;;;;;8.75;1.40;;;18.20;99.90;;;;;;5060807;28;20503;-86
2021/06/27 11:45:04;;;;;;;4.47;1.13;;;18.10;99.90;;;;;;5042924;28;20082;-87
2021/06/27 11:47:31;;;;;;;9.48;1.30;;;17.90;99.90;;;;;;5062900;28;20078;-88
2021/06/27 11:49:57;;;;;;;6.85;1.33;;;17.80;99.90;;;;;;5066371;28;20048;-86
2021/06/27 11:52:23;;;;;;;4.95;1.50;;;17.70;99.90;;;;;;5059876;28;20033;-86
2021/06/27 11:54:49;;;;;;;8.80;1.45;;;17.80;99.90;;;;;;5069748;28;20028;-86
2021/06/27 11:57:16;;;;;;;7.80;1.45;;;17.90;99.90;;;;;;5060070;28;20103;-85
2021/06/27 11:59:53;;;;;;;4.05;1.60;;;18.00;99.90;;;;;;5072754;28;20020;-85
2021/06/27 12:02:26;;;;;;;9.43;1.92;;;17.90;99.90;;;;;;5055847;28;20036;-86
2021/06/27 12:04:58;;;;;;;6.82;1.80;;;17.80;99.90;;;;;;5038373;28;20025;-86
2021/06/27 12:07:34;;;;;;;8.07;1.70;;;17.80;99.90;;;;;;5060897;28;20027;-86
2021/06/27 12:10:13;;;;;;;11.30;2.03;;;17.80;99.90;;;;;;5072577;28;20025;-85
2021/06/27 12:12:50;;;;;;;9.85;2.17;;;17.60;99.90;;;;;;5071919;28;20036;-84
2021/06/27 12:15:18;;;;;;;8.38;2.67;;;17.70;99.90;;;;;;5064755;28;20025;-84
2021/06/27 12:17:53;;;;;;;8.95;1.95;;;17.60;99.90;;;;;;5043863;28;20090;-85
2021/06/27 12:20:20;;;;;;;6.05;1.70;;;17.70;99.90;;;;;;5068627;28;20013;-87
2021/06/27 12:22:49;;;;;;;12.00;2.70;;;17.60;99.90;;;;;;5063864;28;20025;-86
2021/06/27 12:25:15;;;;;;;11.07;2.08;;;17.60;99.90;;;;;;5051807;28;20453;-85
2021/06/27 12:27:51;;;;;;;11.90;2.13;;;17.50;99.90;;;;;;5061452;28;20025;-87
2021/06/27 12:30:18;;;;;;;5.25;1.73;;;17.50;99.90;;;;;;5070450;28;20020;-86
2021/06/27 12:33:03;;;;;;;5.43;1.65;;;17.40;99.90;;;;;;5053718;28;20190;-86
2021/06/27 12:35:32;;;;;;;8.70;1.88;;;17.60;99.90;;;;;;5052014;28;20072;-90
2021/06/27 12:38:02;;;;;;;6.00;1.63;;;17.80;99.90;;;;;;5064873;28;20247;-88
2021/06/27 12:40:29;;;;;;;6.07;1.55;;;18.10;99.90;;;;;;5060602;28;20021;-89
2021/06/27 12:42:55;;;;;;;9.68;1.83;;;18.30;99.90;;;;;;5062931;28;20243;-90
2021/06/27 12:45:24;;;;;;;5.00;1.70;;;18.40;99.90;;;;;;5072445;28;20598;-92
2021/06/27 12:47:51;;;;;;;6.03;1.95;;;18.20;99.90;;;;;;5053198;28;20055;-83
2021/06/27 12:50:33;;;;;;;11.02;1.90;;;18.30;99.90;;;;;;5056156;28;20041;-83
2021/06/27 12:53:04;;;;;;;9.32;2.92;;;18.70;99.90;;;;;;5060294;28;20056;-83